sensor_id;sensor_type;location;lat;lon;timestamp;P1;durP1;ratioP1;P2;durP2;ratioP2
10529;SDS011;5313;48.834;9.228;2022-08-21T00:00:53;4.93;;;3.40;;
10529;SDS011;5313;48.834;9.228;2022-08-21T00:03:19;6.77;;;4.00;;
10529;SDS011;5313;48.834;9.228;2022-08-21T00:05:46;4.70;;;3.50;;
10529;SDS011;5313;48.834;9.228;2022-08-21T00:08:14;6.97;;;3.80;;
10529;SDS011;5313;48.834;9.228;2022-08-21T00:10:41;6.83;;;3.70;;
10529;SDS011;5313;48.834;9.228;2022-08-21T00:13:07;5.00;;;3.73;;
10529;SDS011;5313;48.834;9.228;2022-08-21T00:15:34;4.50;;;3.83;;
10529;SDS011;5313;48.834;9.228;2022-08-21T00:18:01;5.73;;;4.10;;
10529;SDS011;5313;48.834;9.228;2022-08-21T00:20:28;10.37;;;4.57;;
10529;SDS011;5313;48.834;9.228;2022-08-21T00:22:54;6.73;;;4.00;;
10529;SDS011;5313;48.834;9.228;2022-08-21T00:25:20;5.90;;;3.80;;
10529;SDS011;5313;48.834;9.228;2022-08-21T00:27:45;5.43;;;3.77;;
10529;SDS011;5313;48.834;9.228;2022-08-21T00:30:12;4.50;;;3.70;;
10529;SDS011;5313;48.834;9.228;2022-08-21T00:32:40;5.50;;;3.77;;
10529;SDS011;5313;48.834;9.228;2022-08-21T00:35:08;6.50;;;3.37;;
10529;SDS011;5313;48.834;9.228;2022-08-21T00:37:38;9.60;;;3.53;;
10529;SDS011;5313;48.834;9.228;2022-08-21T00:40:04;5.43;;;3.43;;
10529;SDS011;5313;48.834;9.228;2022-08-21T00:42:31;5.00;;;3.20;;
10529;SDS011;5313;48.834;9.228;2022-08-21T00:44:56;7.03;;;3.93;;
10529;SDS011;5313;48.834;9.228;2022-08-21T00:47:22;4.07;;;3.40;;
10529;SDS011;5313;48.834;9.228;2022-08-21T00:49:48;6.17;;;3.63;;
10529;SDS011;5313;48.834;9.228;2022-08-21T00:52:15;4.90;;;3.70;;
10529;SDS011;5313;48.834;9.228;2022-08-21T00:54:44;5.33;;;4.27;;
10529;SDS011;5313;48.834;9.228;2022-08-21T00:57:14;6.80;;;3.60;;
10529;SDS011;5313;48.834;9.228;2022-08-21T00:59:53;5.10;;;3.80;;
10529;SDS011;5313;48.834;9.228;2022-08-21T01:02:20;5.73;;;3.33;;
10529;SDS011;5313;48.834;9.228;2022-08-21T01:04:47;6.23;;;3.70;;
10529;SDS011;5313;48.834;9.228;2022-08-21T01:07:13;5.20;;;3.33;;
10529;SDS011;5313;48.834;9.228;2022-08-21T01:09:39;5.23;;;3.50;;
10529;SDS011;5313;48.834;9.228;2022-08-21T01:12:05;4.00;;;3.23;;
10529;SDS011;5313;48.834;9.228;2022-08-21T01:14:31;4.53;;;3.30;;
10529;SDS011;5313;48.834;9.228;2022-08-21T01:16:57;5.93;;;3.27;;
10529;SDS011;5313;48.834;9.228;2022-08-21T01:19:24;3.90;;;3.07;;
10529;SDS011;5313;48.834;9.228;2022-08-21T01:21:51;4.33;;;3.40;;
10529;SDS011;5313;48.834;9.228;2022-08-21T01:24:17;5.87;;;3.53;;
10529;SDS011;5313;48.834;9.228;2022-08-21T01:26:43;7.60;;;3.97;;
10529;SDS011;5313;48.834;9.228;2022-08-21T01:29:13;4.80;;;3.37;;
10529;SDS011;5313;48.834;9.228;2022-08-21T01:32:03;5.23;;;3.53;;
10529;SDS011;5313;48.834;9.228;2022-08-21T01:34:31;4.73;;;3.37;;
10529;SDS011;5313;48.834;9.228;2022-08-21T01:36:58;4.63;;;3.17;;
10529;SDS011;5313;48.834;9.228;2022-08-21T01:39:24;6.23;;;3.50;;
10529;SDS011;5313;48.834;9.228;2022-08-21T01:41:49;4.00;;;2.93;;
10529;SDS011;5313;48.834;9.228;2022-08-21T01:44:15;5.07;;;3.77;;
10529;SDS011;5313;48.834;9.228;2022-08-21T01:46:40;6.73;;;3.60;;
10529;SDS011;5313;48.834;9.228;2022-08-21T01:49:06;5.20;;;3.60;;
10529;SDS011;5313;48.834;9.228;2022-08-21T01:51:32;5.60;;;3.70;;
10529;SDS011;5313;48.834;9.228;2022-08-21T01:53:57;4.80;;;3.43;;
10529;SDS011;5313;48.834;9.228;2022-08-21T01:56:23;3.50;;;3.17;;
10529;SDS011;5313;48.834;9.228;2022-08-21T01:58:50;4.27;;;3.43;;
10529;SDS011;5313;48.834;9.228;2022-08-21T02:01:16;5.27;;;3.67;;
10529;SDS011;5313;48.834;9.228;2022-08-21T02:03:41;5.43;;;3.47;;
10529;SDS011;5313;48.834;9.228;2022-08-21T02:06:11;5.03;;;3.50;;
10529;SDS011;5313;48.834;9.228;2022-08-21T02:08:39;5.77;;;3.40;;
10529;SDS011;5313;48.834;9.228;2022-08-21T02:11:05;4.57;;;3.20;;
10529;SDS011;5313;48.834;9.228;2022-08-21T02:13:31;6.40;;;3.40;;
10529;SDS011;5313;48.834;9.228;2022-08-21T02:15:56;4.03;;;3.30;;
10529;SDS011;5313;48.834;9.228;2022-08-21T02:18:22;4.33;;;3.13;;
10529;SDS011;5313;48.834;9.228;2022-08-21T02:20:48;5.20;;;3.40;;
10529;SDS011;5313;48.834;9.228;2022-08-21T02:23:14;4.80;;;3.97;;
10529;SDS011;5313;48.834;9.228;2022-08-21T02:25:40;6.43;;;3.63;;
10529;SDS011;5313;48.834;9.228;2022-08-21T02:28:08;4.43;;;3.30;;
10529;SDS011;5313;48.834;9.228;2022-08-21T02:30:37;4.90;;;3.40;;
10529;SDS011;5313;48.834;9.228;2022-08-21T02:33:05;5.23;;;3.80;;
10529;SDS011;5313;48.834;9.228;2022-08-21T02:35:30;5.33;;;3.20;;
10529;SDS011;5313;48.834;9.228;2022-08-21T02:37:57;4.30;;;3.47;;
10529;SDS011;5313;48.834;9.228;2022-08-21T02:40:27;5.07;;;3.50;;
10529;SDS011;5313;48.834;9.228;2022-08-21T02:42:56;3.53;;;3.00;;
10529;SDS011;5313;48.834;9.228;2022-08-21T02:45:22;4.30;;;3.30;;
10529;SDS011;5313;48.834;9.228;2022-08-21T02:47:52;5.37;;;3.13;;
10529;SDS011;5313;48.834;9.228;2022-08-21T02:50:22;6.93;;;3.00;;
10529;SDS011;5313;48.834;9.228;2022-08-21T02:52:49;6.33;;;3.67;;
10529;SDS011;5313;48.834;9.228;2022-08-21T02:55:17;5.20;;;3.03;;
10529;SDS011;5313;48.834;9.228;2022-08-21T02:57:43;6.23;;;3.27;;
10529;SDS011;5313;48.834;9.228;2022-08-21T03:00:09;4.50;;;3.17;;
10529;SDS011;5313;48.834;9.228;2022-08-21T03:02:36;4.07;;;3.10;;
10529;SDS011;5313;48.834;9.228;2022-08-21T03:05:02;5.53;;;3.07;;
10529;SDS011;5313;48.834;9.228;2022-08-21T03:07:29;4.90;;;2.70;;
10529;SDS011;5313;48.834;9.228;2022-08-21T03:09:54;4.90;;;3.20;;
10529;SDS011;5313;48.834;9.228;2022-08-21T03:12:20;4.13;;;2.90;;
10529;SDS011;5313;48.834;9.228;2022-08-21T03:14:45;4.77;;;3.00;;
10529;SDS011;5313;48.834;9.228;2022-08-21T03:17:11;5.73;;;3.67;;
10529;SDS011;5313;48.834;9.228;2022-08-21T03:19:37;6.13;;;3.33;;
10529;SDS011;5313;48.834;9.228;2022-08-21T03:22:02;6.70;;;3.20;;
10529;SDS011;5313;48.834;9.228;2022-08-21T03:24:28;4.30;;;3.17;;
10529;SDS011;5313;48.834;9.228;2022-08-21T03:26:54;4.07;;;2.80;;
10529;SDS011;5313;48.834;9.228;2022-08-21T03:29:19;7.13;;;3.30;;
10529;SDS011;5313;48.834;9.228;2022-08-21T03:31:45;4.30;;;3.50;;
10529;SDS011;5313;48.834;9.228;2022-08-21T03:34:10;4.53;;;2.97;;
10529;SDS011;5313;48.834;9.228;2022-08-21T03:36:36;4.77;;;3.00;;
10529;SDS011;5313;48.834;9.228;2022-08-21T03:39:01;4.50;;;3.03;;
10529;SDS011;5313;48.834;9.228;2022-08-21T03:41:28;4.13;;;3.03;;
10529;SDS011;5313;48.834;9.228;2022-08-21T03:43:53;4.40;;;3.30;;
10529;SDS011;5313;48.834;9.228;2022-08-21T03:46:19;6.23;;;3.57;;
10529;SDS011;5313;48.834;9.228;2022-08-21T03:48:44;6.47;;;3.90;;
10529;SDS011;5313;48.834;9.228;2022-08-21T03:51:10;5.03;;;3.30;;
10529;SDS011;5313;48.834;9.228;2022-08-21T03:53:35;5.73;;;3.30;;
10529;SDS011;5313;48.834;9.228;2022-08-21T03:56:02;3.97;;;3.20;;
10529;SDS011;5313;48.834;9.228;2022-08-21T03:58:28;4.93;;;3.10;;
10529;SDS011;5313;48.834;9.228;2022-08-21T04:00:55;3.23;;;2.77;;
10529;SDS011;5313;48.834;9.228;2022-08-21T04:03:22;5.33;;;3.10;;
10529;SDS011;5313;48.834;9.228;2022-08-21T04:05:49;5.10;;;3.20;;
10529;SDS011;5313;48.834;9.228;2022-08-21T04:08:15;3.83;;;3.00;;
10529;SDS011;5313;48.834;9.228;2022-08-21T04:10:45;3.93;;;2.77;;
10529;SDS011;5313;48.834;9.228;2022-08-21T04:13:13;3.23;;;2.93;;
10529;SDS011;5313;48.834;9.228;2022-08-21T04:15:39;4.00;;;3.27;;
10529;SDS011;5313;48.834;9.228;2022-08-21T04:18:06;6.83;;;3.43;;
10529;SDS011;5313;48.834;9.228;2022-08-21T04:20:32;6.30;;;3.70;;
10529;SDS011;5313;48.834;9.228;2022-08-21T04:22:57;4.17;;;3.20;;
10529;SDS011;5313;48.834;9.228;2022-08-21T04:25:23;3.57;;;2.97;;
10529;SDS011;5313;48.834;9.228;2022-08-21T04:27:52;6.47;;;3.30;;
10529;SDS011;5313;48.834;9.228;2022-08-21T04:30:18;5.03;;;3.03;;
10529;SDS011;5313;48.834;9.228;2022-08-21T04:32:44;6.43;;;3.30;;
10529;SDS011;5313;48.834;9.228;2022-08-21T04:35:12;4.53;;;3.13;;
10529;SDS011;5313;48.834;9.228;2022-08-21T04:37:39;5.90;;;3.10;;
10529;SDS011;5313;48.834;9.228;2022-08-21T04:40:05;3.80;;;3.07;;
10529;SDS011;5313;48.834;9.228;2022-08-21T04:42:39;3.80;;;2.87;;
10529;SDS011;5313;48.834;9.228;2022-08-21T04:45:15;5.93;;;3.07;;
10529;SDS011;5313;48.834;9.228;2022-08-21T04:47:47;4.40;;;2.97;;
10529;SDS011;5313;48.834;9.228;2022-08-21T04:50:14;5.90;;;3.23;;
10529;SDS011;5313;48.834;9.228;2022-08-21T04:52:40;6.43;;;2.70;;
10529;SDS011;5313;48.834;9.228;2022-08-21T04:55:05;5.80;;;3.17;;
10529;SDS011;5313;48.834;9.228;2022-08-21T04:57:32;2.90;;;2.50;;
10529;SDS011;5313;48.834;9.228;2022-08-21T04:59:59;4.33;;;2.73;;
10529;SDS011;5313;48.834;9.228;2022-08-21T05:02:25;3.73;;;2.40;;
10529;SDS011;5313;48.834;9.228;2022-08-21T05:04:51;3.73;;;2.50;;
10529;SDS011;5313;48.834;9.228;2022-08-21T05:07:20;3.00;;;2.73;;
10529;SDS011;5313;48.834;9.228;2022-08-21T05:09:49;4.90;;;3.20;;
10529;SDS011;5313;48.834;9.228;2022-08-21T05:12:15;3.37;;;3.03;;
10529;SDS011;5313;48.834;9.228;2022-08-21T05:14:41;4.57;;;3.07;;
10529;SDS011;5313;48.834;9.228;2022-08-21T05:17:08;3.73;;;2.77;;
10529;SDS011;5313;48.834;9.228;2022-08-21T05:19:34;6.63;;;3.13;;
10529;SDS011;5313;48.834;9.228;2022-08-21T05:22:00;4.20;;;3.17;;
10529;SDS011;5313;48.834;9.228;2022-08-21T05:24:26;5.80;;;2.83;;
10529;SDS011;5313;48.834;9.228;2022-08-21T05:26:52;4.33;;;2.63;;
10529;SDS011;5313;48.834;9.228;2022-08-21T05:29:18;3.93;;;2.90;;
10529;SDS011;5313;48.834;9.228;2022-08-21T05:31:44;3.93;;;2.80;;
10529;SDS011;5313;48.834;9.228;2022-08-21T05:34:12;4.67;;;2.90;;
10529;SDS011;5313;48.834;9.228;2022-08-21T05:36:38;6.87;;;2.73;;
10529;SDS011;5313;48.834;9.228;2022-08-21T05:39:04;4.60;;;2.93;;
10529;SDS011;5313;48.834;9.228;2022-08-21T05:41:30;3.87;;;3.20;;
10529;SDS011;5313;48.834;9.228;2022-08-21T05:43:55;4.83;;;3.43;;
10529;SDS011;5313;48.834;9.228;2022-08-21T05:46:21;3.47;;;3.10;;
10529;SDS011;5313;48.834;9.228;2022-08-21T05:48:46;4.97;;;3.13;;
10529;SDS011;5313;48.834;9.228;2022-08-21T05:51:13;6.30;;;3.00;;
10529;SDS011;5313;48.834;9.228;2022-08-21T05:53:41;4.70;;;2.97;;
10529;SDS011;5313;48.834;9.228;2022-08-21T05:56:07;4.13;;;3.10;;
10529;SDS011;5313;48.834;9.228;2022-08-21T05:58:34;5.10;;;3.33;;
10529;SDS011;5313;48.834;9.228;2022-08-21T06:01:00;3.83;;;2.80;;
10529;SDS011;5313;48.834;9.228;2022-08-21T06:03:28;5.50;;;3.10;;
10529;SDS011;5313;48.834;9.228;2022-08-21T06:05:55;5.20;;;2.83;;
10529;SDS011;5313;48.834;9.228;2022-08-21T06:08:21;3.93;;;3.20;;
10529;SDS011;5313;48.834;9.228;2022-08-21T06:10:48;3.83;;;3.20;;
10529;SDS011;5313;48.834;9.228;2022-08-21T06:13:15;4.83;;;2.93;;
10529;SDS011;5313;48.834;9.228;2022-08-21T06:15:41;4.60;;;2.50;;
10529;SDS011;5313;48.834;9.228;2022-08-21T06:18:07;4.23;;;2.93;;
10529;SDS011;5313;48.834;9.228;2022-08-21T06:20:33;3.43;;;2.33;;
10529;SDS011;5313;48.834;9.228;2022-08-21T06:22:59;3.67;;;2.33;;
10529;SDS011;5313;48.834;9.228;2022-08-21T06:25:25;5.63;;;3.00;;
10529;SDS011;5313;48.834;9.228;2022-08-21T06:27:51;5.63;;;3.13;;
10529;SDS011;5313;48.834;9.228;2022-08-21T06:30:17;3.97;;;3.20;;
10529;SDS011;5313;48.834;9.228;2022-08-21T06:32:43;4.13;;;3.07;;
10529;SDS011;5313;48.834;9.228;2022-08-21T06:35:09;7.03;;;3.33;;
10529;SDS011;5313;48.834;9.228;2022-08-21T06:37:35;5.30;;;2.90;;
10529;SDS011;5313;48.834;9.228;2022-08-21T06:40:00;6.30;;;3.10;;
10529;SDS011;5313;48.834;9.228;2022-08-21T06:42:27;6.17;;;3.07;;
10529;SDS011;5313;48.834;9.228;2022-08-21T06:44:54;4.53;;;2.60;;
10529;SDS011;5313;48.834;9.228;2022-08-21T06:47:21;5.43;;;2.97;;
10529;SDS011;5313;48.834;9.228;2022-08-21T06:49:46;4.53;;;3.10;;
10529;SDS011;5313;48.834;9.228;2022-08-21T06:52:12;5.73;;;3.40;;
10529;SDS011;5313;48.834;9.228;2022-08-21T06:54:38;5.83;;;3.30;;
10529;SDS011;5313;48.834;9.228;2022-08-21T06:57:04;4.10;;;3.00;;
10529;SDS011;5313;48.834;9.228;2022-08-21T06:59:30;4.33;;;3.13;;
10529;SDS011;5313;48.834;9.228;2022-08-21T07:01:56;4.87;;;2.90;;
10529;SDS011;5313;48.834;9.228;2022-08-21T07:04:22;3.83;;;2.67;;
10529;SDS011;5313;48.834;9.228;2022-08-21T07:06:48;4.13;;;2.80;;
10529;SDS011;5313;48.834;9.228;2022-08-21T07:09:13;5.83;;;2.80;;
10529;SDS011;5313;48.834;9.228;2022-08-21T07:11:39;6.33;;;3.03;;
10529;SDS011;5313;48.834;9.228;2022-08-21T07:14:05;4.77;;;2.80;;
10529;SDS011;5313;48.834;9.228;2022-08-21T07:16:30;3.93;;;2.63;;
10529;SDS011;5313;48.834;9.228;2022-08-21T07:18:56;5.33;;;2.70;;
10529;SDS011;5313;48.834;9.228;2022-08-21T07:21:21;3.70;;;2.60;;
10529;SDS011;5313;48.834;9.228;2022-08-21T07:23:48;5.50;;;2.87;;
10529;SDS011;5313;48.834;9.228;2022-08-21T07:26:15;5.03;;;2.93;;
10529;SDS011;5313;48.834;9.228;2022-08-21T07:28:43;5.60;;;2.90;;
10529;SDS011;5313;48.834;9.228;2022-08-21T07:31:09;4.17;;;2.30;;
10529;SDS011;5313;48.834;9.228;2022-08-21T07:33:38;5.07;;;3.37;;
10529;SDS011;5313;48.834;9.228;2022-08-21T07:36:04;6.50;;;2.60;;
10529;SDS011;5313;48.834;9.228;2022-08-21T07:38:30;4.77;;;3.00;;
10529;SDS011;5313;48.834;9.228;2022-08-21T07:40:56;7.80;;;3.53;;
10529;SDS011;5313;48.834;9.228;2022-08-21T07:43:24;5.43;;;3.13;;
10529;SDS011;5313;48.834;9.228;2022-08-21T07:45:50;5.73;;;3.20;;
10529;SDS011;5313;48.834;9.228;2022-08-21T07:48:16;7.57;;;3.50;;
10529;SDS011;5313;48.834;9.228;2022-08-21T07:50:42;4.67;;;3.00;;
10529;SDS011;5313;48.834;9.228;2022-08-21T07:53:07;3.67;;;2.60;;
10529;SDS011;5313;48.834;9.228;2022-08-21T07:55:33;4.90;;;2.93;;
10529;SDS011;5313;48.834;9.228;2022-08-21T07:57:59;5.07;;;2.53;;
10529;SDS011;5313;48.834;9.228;2022-08-21T08:00:25;5.83;;;3.00;;
10529;SDS011;5313;48.834;9.228;2022-08-21T08:02:52;4.53;;;2.87;;
10529;SDS011;5313;48.834;9.228;2022-08-21T08:05:20;4.43;;;3.17;;
10529;SDS011;5313;48.834;9.228;2022-08-21T08:07:48;8.27;;;3.67;;
10529;SDS011;5313;48.834;9.228;2022-08-21T08:10:13;5.90;;;3.20;;
10529;SDS011;5313;48.834;9.228;2022-08-21T08:12:40;8.20;;;2.97;;
10529;SDS011;5313;48.834;9.228;2022-08-21T08:15:08;6.13;;;3.30;;
10529;SDS011;5313;48.834;9.228;2022-08-21T08:17:36;6.33;;;3.50;;
10529;SDS011;5313;48.834;9.228;2022-08-21T08:20:03;3.67;;;2.90;;
10529;SDS011;5313;48.834;9.228;2022-08-21T08:22:37;8.83;;;3.60;;
10529;SDS011;5313;48.834;9.228;2022-08-21T08:25:04;7.27;;;3.77;;
10529;SDS011;5313;48.834;9.228;2022-08-21T08:27:30;5.50;;;3.43;;
10529;SDS011;5313;48.834;9.228;2022-08-21T08:29:56;5.90;;;3.27;;
10529;SDS011;5313;48.834;9.228;2022-08-21T08:32:22;4.90;;;3.27;;
10529;SDS011;5313;48.834;9.228;2022-08-21T08:34:48;5.43;;;3.37;;
10529;SDS011;5313;48.834;9.228;2022-08-21T08:37:16;7.60;;;3.40;;
10529;SDS011;5313;48.834;9.228;2022-08-21T08:39:42;4.93;;;3.00;;
10529;SDS011;5313;48.834;9.228;2022-08-21T08:42:09;6.07;;;3.10;;
10529;SDS011;5313;48.834;9.228;2022-08-21T08:44:41;5.27;;;3.37;;
10529;SDS011;5313;48.834;9.228;2022-08-21T08:47:08;5.90;;;3.57;;
10529;SDS011;5313;48.834;9.228;2022-08-21T08:49:39;8.13;;;3.77;;
10529;SDS011;5313;48.834;9.228;2022-08-21T08:52:20;6.60;;;3.67;;
10529;SDS011;5313;48.834;9.228;2022-08-21T08:54:57;7.73;;;3.50;;
10529;SDS011;5313;48.834;9.228;2022-08-21T08:57:27;4.73;;;3.20;;
10529;SDS011;5313;48.834;9.228;2022-08-21T08:59:53;4.87;;;3.70;;
10529;SDS011;5313;48.834;9.228;2022-08-21T09:02:21;4.73;;;3.37;;
10529;SDS011;5313;48.834;9.228;2022-08-21T09:04:52;7.87;;;4.03;;
10529;SDS011;5313;48.834;9.228;2022-08-21T09:07:35;6.50;;;3.80;;
10529;SDS011;5313;48.834;9.228;2022-08-21T09:10:13;8.73;;;3.77;;
10529;SDS011;5313;48.834;9.228;2022-08-21T09:15:43;5.97;;;3.73;;
10529;SDS011;5313;48.834;9.228;2022-08-21T09:18:52;7.93;;;3.53;;
10529;SDS011;5313;48.834;9.228;2022-08-21T09:26:55;6.70;;;4.07;;
10529;SDS011;5313;48.834;9.228;2022-08-21T09:29:43;5.30;;;3.97;;
10529;SDS011;5313;48.834;9.228;2022-08-21T09:32:27;7.43;;;4.10;;
10529;SDS011;5313;48.834;9.228;2022-08-21T09:34:57;9.20;;;4.70;;
10529;SDS011;5313;48.834;9.228;2022-08-21T09:37:30;6.23;;;3.90;;
10529;SDS011;5313;48.834;9.228;2022-08-21T09:39:57;6.20;;;3.47;;
10529;SDS011;5313;48.834;9.228;2022-08-21T09:42:27;8.30;;;3.83;;
10529;SDS011;5313;48.834;9.228;2022-08-21T09:45:16;5.60;;;3.23;;
10529;SDS011;5313;48.834;9.228;2022-08-21T09:47:43;7.97;;;3.33;;
10529;SDS011;5313;48.834;9.228;2022-08-21T09:50:12;6.57;;;3.17;;
10529;SDS011;5313;48.834;9.228;2022-08-21T09:52:45;4.23;;;3.00;;
10529;SDS011;5313;48.834;9.228;2022-08-21T09:55:34;6.97;;;3.20;;
10529;SDS011;5313;48.834;9.228;2022-08-21T09:58:31;4.17;;;2.50;;
10529;SDS011;5313;48.834;9.228;2022-08-21T10:00:59;6.23;;;3.20;;
10529;SDS011;5313;48.834;9.228;2022-08-21T10:03:26;5.80;;;2.53;;
10529;SDS011;5313;48.834;9.228;2022-08-21T10:05:55;7.33;;;2.77;;
10529;SDS011;5313;48.834;9.228;2022-08-21T10:08:30;7.70;;;2.93;;
10529;SDS011;5313;48.834;9.228;2022-08-21T10:11:07;6.43;;;2.83;;
10529;SDS011;5313;48.834;9.228;2022-08-21T10:26:57;6.53;;;3.03;;
10529;SDS011;5313;48.834;9.228;2022-08-21T10:29:47;6.87;;;3.03;;
10529;SDS011;5313;48.834;9.228;2022-08-21T10:35:27;6.10;;;2.90;;
10529;SDS011;5313;48.834;9.228;2022-08-21T10:38:21;6.83;;;3.17;;
10529;SDS011;5313;48.834;9.228;2022-08-21T10:41:23;7.90;;;3.30;;
10529;SDS011;5313;48.834;9.228;2022-08-21T10:44:00;6.13;;;2.97;;
10529;SDS011;5313;48.834;9.228;2022-08-21T10:49:26;6.10;;;3.30;;
10529;SDS011;5313;48.834;9.228;2022-08-21T10:52:12;5.03;;;2.73;;
10529;SDS011;5313;48.834;9.228;2022-08-21T10:55:08;5.33;;;2.73;;
10529;SDS011;5313;48.834;9.228;2022-08-21T10:57:58;6.53;;;3.00;;
10529;SDS011;5313;48.834;9.228;2022-08-21T11:00:32;5.03;;;2.67;;
10529;SDS011;5313;48.834;9.228;2022-08-21T11:06:00;4.80;;;2.97;;
10529;SDS011;5313;48.834;9.228;2022-08-21T11:08:41;5.97;;;3.20;;
10529;SDS011;5313;48.834;9.228;2022-08-21T11:11:12;4.67;;;2.87;;
10529;SDS011;5313;48.834;9.228;2022-08-21T11:29:44;6.27;;;3.00;;
10529;SDS011;5313;48.834;9.228;2022-08-21T11:32:31;5.93;;;2.80;;
10529;SDS011;5313;48.834;9.228;2022-08-21T11:38:03;4.87;;;2.60;;
10529;SDS011;5313;48.834;9.228;2022-08-21T11:43:42;10.63;;;2.93;;
10529;SDS011;5313;48.834;9.228;2022-08-21T11:46:25;4.90;;;2.90;;
10529;SDS011;5313;48.834;9.228;2022-08-21T11:52:25;5.53;;;2.97;;
10529;SDS011;5313;48.834;9.228;2022-08-21T11:55:03;5.80;;;2.90;;
10529;SDS011;5313;48.834;9.228;2022-08-21T12:00:49;4.80;;;2.67;;
10529;SDS011;5313;48.834;9.228;2022-08-21T12:03:25;6.75;;;2.70;;
10529;SDS011;5313;48.834;9.228;2022-08-21T12:05:59;5.90;;;3.00;;
10529;SDS011;5313;48.834;9.228;2022-08-21T12:08:36;4.67;;;2.43;;
10529;SDS011;5313;48.834;9.228;2022-08-21T12:13:36;5.90;;;2.85;;
10529;SDS011;5313;48.834;9.228;2022-08-21T12:16:05;7.28;;;2.70;;
10529;SDS011;5313;48.834;9.228;2022-08-21T12:18:35;4.50;;;2.42;;
10529;SDS011;5313;48.834;9.228;2022-08-21T12:23:59;4.43;;;2.70;;
10529;SDS011;5313;48.834;9.228;2022-08-21T12:26:27;5.03;;;2.95;;
10529;SDS011;5313;48.834;9.228;2022-08-21T12:29:24;6.53;;;2.63;;
10529;SDS011;5313;48.834;9.228;2022-08-21T12:31:54;6.30;;;2.70;;
10529;SDS011;5313;48.834;9.228;2022-08-21T12:34:46;4.47;;;2.45;;
10529;SDS011;5313;48.834;9.228;2022-08-21T12:37:18;6.40;;;2.60;;
10529;SDS011;5313;48.834;9.228;2022-08-21T12:39:50;4.50;;;2.55;;
10529;SDS011;5313;48.834;9.228;2022-08-21T12:42:22;4.40;;;2.17;;
10529;SDS011;5313;48.834;9.228;2022-08-21T12:45:17;3.63;;;2.30;;
10529;SDS011;5313;48.834;9.228;2022-08-21T12:47:57;4.60;;;2.30;;
10529;SDS011;5313;48.834;9.228;2022-08-21T12:50:37;4.75;;;2.22;;
10529;SDS011;5313;48.834;9.228;2022-08-21T12:53:12;4.30;;;2.22;;
10529;SDS011;5313;48.834;9.228;2022-08-21T12:56:01;5.45;;;2.50;;
10529;SDS011;5313;48.834;9.228;2022-08-21T12:58:29;5.68;;;2.45;;
10529;SDS011;5313;48.834;9.228;2022-08-21T13:00:56;5.50;;;2.70;;
10529;SDS011;5313;48.834;9.228;2022-08-21T13:03:28;6.35;;;2.45;;
10529;SDS011;5313;48.834;9.228;2022-08-21T13:05:56;6.05;;;2.53;;
10529;SDS011;5313;48.834;9.228;2022-08-21T13:08:23;4.03;;;2.05;;
10529;SDS011;5313;48.834;9.228;2022-08-21T13:10:56;3.58;;;2.38;;
10529;SDS011;5313;48.834;9.228;2022-08-21T13:13:25;6.68;;;2.60;;
10529;SDS011;5313;48.834;9.228;2022-08-21T13:15:56;3.92;;;2.38;;
10529;SDS011;5313;48.834;9.228;2022-08-21T13:18:33;5.38;;;2.63;;
10529;SDS011;5313;48.834;9.228;2022-08-21T13:21:16;4.40;;;2.50;;
10529;SDS011;5313;48.834;9.228;2022-08-21T13:23:41;3.75;;;2.40;;
10529;SDS011;5313;48.834;9.228;2022-08-21T13:26:14;5.40;;;2.70;;
10529;SDS011;5313;48.834;9.228;2022-08-21T13:28:41;4.97;;;2.83;;
10529;SDS011;5313;48.834;9.228;2022-08-21T13:31:09;4.13;;;2.20;;
10529;SDS011;5313;48.834;9.228;2022-08-21T13:33:35;4.03;;;2.50;;
10529;SDS011;5313;48.834;9.228;2022-08-21T13:36:11;6.45;;;2.42;;
10529;SDS011;5313;48.834;9.228;2022-08-21T13:38:42;4.78;;;2.65;;
10529;SDS011;5313;48.834;9.228;2022-08-21T13:43:43;4.05;;;2.22;;
10529;SDS011;5313;48.834;9.228;2022-08-21T13:46:15;3.22;;;2.20;;
10529;SDS011;5313;48.834;9.228;2022-08-21T13:48:42;4.57;;;2.60;;
10529;SDS011;5313;48.834;9.228;2022-08-21T13:51:08;3.95;;;2.60;;
10529;SDS011;5313;48.834;9.228;2022-08-21T13:53:36;3.33;;;2.33;;
10529;SDS011;5313;48.834;9.228;2022-08-21T13:56:20;5.82;;;2.58;;
10529;SDS011;5313;48.834;9.228;2022-08-21T13:59:06;4.95;;;2.20;;
10529;SDS011;5313;48.834;9.228;2022-08-21T14:04:18;5.78;;;2.50;;
10529;SDS011;5313;48.834;9.228;2022-08-21T14:06:48;4.63;;;2.60;;
10529;SDS011;5313;48.834;9.228;2022-08-21T14:09:34;4.57;;;2.30;;
10529;SDS011;5313;48.834;9.228;2022-08-21T14:12:14;5.45;;;2.38;;
10529;SDS011;5313;48.834;9.228;2022-08-21T14:14:44;4.55;;;2.58;;
10529;SDS011;5313;48.834;9.228;2022-08-21T14:17:12;4.18;;;2.25;;
10529;SDS011;5313;48.834;9.228;2022-08-21T14:19:50;4.40;;;2.30;;
10529;SDS011;5313;48.834;9.228;2022-08-21T14:25:11;3.40;;;2.40;;
10529;SDS011;5313;48.834;9.228;2022-08-21T14:33:00;3.65;;;2.20;;
10529;SDS011;5313;48.834;9.228;2022-08-21T14:35:27;3.83;;;2.15;;
10529;SDS011;5313;48.834;9.228;2022-08-21T14:37:53;4.50;;;2.10;;
10529;SDS011;5313;48.834;9.228;2022-08-21T14:40:19;4.55;;;2.60;;
10529;SDS011;5313;48.834;9.228;2022-08-21T14:42:46;4.78;;;2.60;;
10529;SDS011;5313;48.834;9.228;2022-08-21T14:45:35;3.45;;;2.60;;
10529;SDS011;5313;48.834;9.228;2022-08-21T14:48:01;3.88;;;2.40;;
10529;SDS011;5313;48.834;9.228;2022-08-21T14:50:28;6.18;;;2.92;;
10529;SDS011;5313;48.834;9.228;2022-08-21T14:52:54;3.20;;;2.30;;
10529;SDS011;5313;48.834;9.228;2022-08-21T14:55:19;4.63;;;2.30;;
10529;SDS011;5313;48.834;9.228;2022-08-21T14:57:47;7.07;;;2.30;;
10529;SDS011;5313;48.834;9.228;2022-08-21T15:00:15;5.40;;;2.72;;
10529;SDS011;5313;48.834;9.228;2022-08-21T15:02:44;3.50;;;2.22;;
10529;SDS011;5313;48.834;9.228;2022-08-21T15:05:11;5.45;;;2.50;;
10529;SDS011;5313;48.834;9.228;2022-08-21T15:07:37;4.38;;;1.92;;
10529;SDS011;5313;48.834;9.228;2022-08-21T15:10:03;4.03;;;2.40;;
10529;SDS011;5313;48.834;9.228;2022-08-21T15:12:30;5.00;;;2.42;;
10529;SDS011;5313;48.834;9.228;2022-08-21T15:14:55;3.67;;;2.30;;
10529;SDS011;5313;48.834;9.228;2022-08-21T15:17:21;4.82;;;2.78;;
10529;SDS011;5313;48.834;9.228;2022-08-21T15:19:46;3.33;;;1.88;;
10529;SDS011;5313;48.834;9.228;2022-08-21T15:22:12;4.97;;;2.30;;
10529;SDS011;5313;48.834;9.228;2022-08-21T15:24:38;4.30;;;2.00;;
10529;SDS011;5313;48.834;9.228;2022-08-21T15:27:03;5.65;;;2.03;;
10529;SDS011;5313;48.834;9.228;2022-08-21T15:29:32;3.70;;;2.30;;
10529;SDS011;5313;48.834;9.228;2022-08-21T15:31:59;5.43;;;2.42;;
10529;SDS011;5313;48.834;9.228;2022-08-21T15:34:28;2.90;;;1.90;;
10529;SDS011;5313;48.834;9.228;2022-08-21T15:36:55;4.20;;;2.47;;
10529;SDS011;5313;48.834;9.228;2022-08-21T15:39:21;3.33;;;2.10;;
10529;SDS011;5313;48.834;9.228;2022-08-21T15:41:47;3.60;;;2.13;;
10529;SDS011;5313;48.834;9.228;2022-08-21T15:44:13;3.80;;;2.65;;
10529;SDS011;5313;48.834;9.228;2022-08-21T15:46:40;6.30;;;2.30;;
10529;SDS011;5313;48.834;9.228;2022-08-21T15:49:06;5.13;;;2.05;;
10529;SDS011;5313;48.834;9.228;2022-08-21T15:51:32;5.57;;;2.33;;
10529;SDS011;5313;48.834;9.228;2022-08-21T15:53:59;3.22;;;2.10;;
10529;SDS011;5313;48.834;9.228;2022-08-21T15:56:25;5.78;;;2.25;;
10529;SDS011;5313;48.834;9.228;2022-08-21T15:58:54;5.13;;;2.00;;
10529;SDS011;5313;48.834;9.228;2022-08-21T16:01:25;5.30;;;2.20;;
10529;SDS011;5313;48.834;9.228;2022-08-21T16:03:51;4.15;;;2.38;;
10529;SDS011;5313;48.834;9.228;2022-08-21T16:06:19;2.87;;;2.17;;
10529;SDS011;5313;48.834;9.228;2022-08-21T16:08:45;4.27;;;2.73;;
10529;SDS011;5313;48.834;9.228;2022-08-21T16:11:11;4.37;;;2.20;;
10529;SDS011;5313;48.834;9.228;2022-08-21T16:13:40;4.30;;;2.00;;
10529;SDS011;5313;48.834;9.228;2022-08-21T16:16:07;3.53;;;2.30;;
10529;SDS011;5313;48.834;9.228;2022-08-21T16:18:35;2.50;;;2.00;;
10529;SDS011;5313;48.834;9.228;2022-08-21T16:21:01;4.97;;;2.00;;
10529;SDS011;5313;48.834;9.228;2022-08-21T16:23:26;4.53;;;2.10;;
10529;SDS011;5313;48.834;9.228;2022-08-21T16:25:52;3.90;;;2.00;;
10529;SDS011;5313;48.834;9.228;2022-08-21T16:28:17;4.17;;;2.43;;
10529;SDS011;5313;48.834;9.228;2022-08-21T16:30:46;4.13;;;2.10;;